Time;durP1;ratioP1;P1;durP2;ratioP2;P2;SDS_P1;SDS_P2;PMS_P1;PMS_P2;Temp;Humidity;BMP_temperature;BMP_pressure;BME280_temperature;BME280_humidity;BME280_pressure;Samples;Min_cycle;Max_cycle;Signal;HPM_P1;HPM_P2
2022/07/01 00:01:23;;;;;;;56.22;22.30;;;;;;;-144.47;56.42;53191.78;5016932;28;20372;-73
2022/07/01 00:03:51;;;;;;;45.70;22.25;;;;;;;-144.47;56.22;53167.94;5010724;28;20484;-73
2022/07/01 00:06:20;;;;;;;43.55;20.75;;;;;;;-144.47;56.27;53203.69;5017747;28;20486;-71
2022/07/01 00:08:45;;;;;;;41.67;20.80;;;;;;;-144.47;56.20;53201.69;5031122;28;20249;-69
2022/07/01 00:11:11;;;;;;;46.53;21.30;;;;;;;-144.47;56.39;53207.66;5013975;28;20232;-70
2022/07/01 00:13:37;;;;;;;45.55;22.27;;;;;;;-144.47;56.50;53209.66;5017866;28;20510;-71
2022/07/01 00:16:03;;;;;;;46.28;23.25;;;;;;;-144.47;56.69;53158.00;5011530;28;20053;-73
2022/07/01 00:18:29;;;;;;;40.55;22.27;;;;;;;-144.47;56.55;53205.66;5010992;28;20033;-72
2022/07/01 00:20:54;;;;;;;50.42;21.88;;;;;;;-144.47;56.45;53165.94;5011697;28;20029;-74
2022/07/01 00:23:20;;;;;;;47.00;21.58;;;;;;;-144.47;56.49;53183.81;5010166;28;20032;-72
2022/07/01 00:25:45;;;;;;;41.35;20.67;;;;;;;-144.47;56.77;53213.63;5009911;28;20518;-68
2022/07/01 00:28:10;;;;;;;52.45;22.77;;;;;;;-144.47;56.80;53175.88;5010944;28;20022;-67
2022/07/01 00:30:37;;;;;;;52.60;21.75;;;;;;;-144.47;56.98;53189.78;5029394;28;20447;-67
2022/07/01 00:33:02;;;;;;;47.15;20.70;;;;;;;-144.47;57.16;53173.88;5018969;28;20575;-73
2022/07/01 00:35:27;;;;;;;51.95;21.60;;;;;;;-144.47;57.41;53167.94;4998370;28;20064;-71
2022/07/01 00:37:53;;;;;;;44.33;22.55;;;;;;;-144.47;57.51;53213.63;5024388;28;20135;-74
2022/07/01 00:40:18;;;;;;;43.90;21.88;;;;;;;-144.47;57.74;53197.72;5011605;28;20044;-70
2022/07/01 00:42:44;;;;;;;53.10;22.10;;;;;;;-144.47;57.69;53161.97;5011419;28;20026;-69
2022/07/01 00:45:10;;;;;;;44.05;20.58;;;;;;;-144.47;57.65;53233.47;5011979;28;20383;-73
2022/07/01 00:47:37;;;;;;;50.20;22.75;;;;;;;-144.47;57.79;53201.69;5014917;28;20079;-73
2022/07/01 00:50:10;;;;;;;48.85;21.77;;;;;;;-144.47;57.97;53167.94;5015149;28;20052;-69
2022/07/01 00:52:36;;;;;;;50.42;22.38;;;;;;;-144.47;58.00;53191.78;5016548;28;20028;-67
2022/07/01 00:55:07;;;;;;;50.58;21.02;;;;;;;-144.47;58.21;53173.88;5009639;28;20030;-68
2022/07/01 00:57:33;;;;;;;41.70;20.25;;;;;;;-144.47;58.01;53219.56;5023938;28;20064;-67
2022/07/01 01:00:01;;;;;;;45.53;21.38;;;;;;;-144.47;57.96;53197.72;5017959;28;20017;-72
2022/07/01 01:02:26;;;;;;;49.23;20.23;;;;;;;-144.47;57.98;53215.59;5014808;28;20052;-71
2022/07/01 01:04:52;;;;;;;48.83;20.67;;;;;;;-144.47;58.01;53181.84;5010620;28;20737;-69
2022/07/01 01:07:17;;;;;;;44.08;21.30;;;;;;;-144.47;58.01;53221.56;5010353;28;20026;-68
2022/07/01 01:09:43;;;;;;;43.78;20.80;;;;;;;-144.47;58.07;53213.63;5010970;28;20287;-71
2022/07/01 01:12:11;;;;;;;53.70;21.45;;;;;;;-144.47;58.18;53187.78;5023238;28;20108;-70
2022/07/01 01:14:49;;;;;;;43.42;18.75;;;;;;;-144.47;58.01;53227.53;5010388;28;20105;-67
2022/07/01 01:17:16;;;;;;;37.83;20.58;;;;;;;-144.47;58.15;53221.56;5009954;28;20049;-70
2022/07/01 01:19:43;;;;;;;41.70;20.13;;;;;;;-144.47;58.13;53239.44;5020572;28;20099;-70
2022/07/01 01:22:10;;;;;;;41.70;19.83;;;;;;;-144.47;58.24;53197.72;5014721;28;20266;-69
2022/07/01 01:24:36;;;;;;;46.67;19.50;;;;;;;-144.47;58.27;53227.53;5013309;28;20099;-71
2022/07/01 01:27:04;;;;;;;41.83;20.35;;;;;;;-144.47;58.29;53215.59;5023450;28;20418;-71
2022/07/01 01:29:29;;;;;;;34.78;19.52;;;;;;;-144.47;58.17;53201.69;5010205;28;20400;-73
2022/07/01 01:31:54;;;;;;;46.75;19.80;;;;;;;-144.47;58.23;53233.47;5009791;28;20037;-69
2022/07/01 01:34:20;;;;;;;40.55;18.05;;;;;;;-144.47;58.07;53207.66;5010260;28;20034;-72
2022/07/01 01:36:46;;;;;;;48.17;19.45;;;;;;;-144.47;58.01;53195.75;5022363;28;20033;-72
2022/07/01 01:39:13;;;;;;;36.83;18.85;;;;;;;-144.47;57.99;53199.72;5010089;28;20030;-72
2022/07/01 01:41:38;;;;;;;47.23;20.63;;;;;;;-144.47;58.05;53181.84;5014275;28;20041;-71
2022/07/01 01:44:04;;;;;;;38.47;19.10;;;;;;;-144.47;58.21;53217.59;5020385;28;20033;-71
2022/07/01 01:46:30;;;;;;;36.50;18.10;;;;;;;-144.47;57.96;53209.66;5023233;28;20021;-70
2022/07/01 01:48:55;;;;;;;40.15;20.23;;;;;;;-144.47;58.18;53187.78;5010287;28;20104;-72
2022/07/01 01:51:21;;;;;;;35.63;18.50;;;;;;;-144.47;58.20;53195.75;5013548;28;20105;-72
2022/07/01 01:53:47;;;;;;;38.55;18.52;;;;;;;-144.47;58.29;53249.38;5019285;28;20044;-71
2022/07/01 01:56:12;;;;;;;38.28;17.80;;;;;;;-144.47;58.14;53217.59;5012592;28;20155;-70
2022/07/01 01:58:42;;;;;;;36.03;18.45;;;;;;;-144.47;58.05;53189.78;5018160;28;20033;-70
2022/07/01 02:01:11;;;;;;;44.10;19.52;;;;;;;-144.47;58.30;53193.75;5023074;28;20029;-70
2022/07/01 02:03:38;;;;;;;46.22;18.65;;;;;;;-144.47;58.25;53187.78;5009885;28;20056;-72
2022/07/01 02:06:05;;;;;;;37.60;18.17;;;;;;;-144.47;58.25;53187.78;5009389;28;20021;-70
2022/07/01 02:08:31;;;;;;;40.50;19.55;;;;;;;-144.47;58.26;53203.69;5010044;28;20061;-73
2022/07/01 02:10:57;;;;;;;37.78;18.35;;;;;;;-144.47;58.29;53237.44;5013351;28;20025;-74
2022/07/01 02:13:23;;;;;;;49.65;20.95;;;;;;;-144.47;58.36;53237.44;5009266;28;20022;-74
2022/07/01 02:15:51;;;;;;;40.22;19.60;;;;;;;-144.47;58.31;53225.53;5009227;28;20022;-69
2022/07/01 02:18:17;;;;;;;40.35;18.42;;;;;;;-144.47;58.38;53215.59;5009190;28;20026;-74
2022/07/01 02:20:42;;;;;;;42.88;19.52;;;;;;;-144.47;58.43;53197.72;5008938;28;20455;-74
2022/07/01 02:23:09;;;;;;;43.30;19.98;;;;;;;-144.47;58.59;53211.63;5009837;28;20069;-70
2022/07/01 02:25:35;;;;;;;42.72;19.42;;;;;;;-144.47;58.42;53205.66;4991718;28;20021;-69
2022/07/01 02:28:00;;;;;;;47.05;19.80;;;;;;;-144.47;58.31;53207.66;5008923;28;20372;-74
2022/07/01 02:30:26;;;;;;;40.08;19.25;;;;;;;-144.47;58.55;53223.56;5008160;28;20052;-72
2022/07/01 02:32:52;;;;;;;39.15;19.15;;;;;;;-144.47;58.83;53191.78;5008252;28;20542;-74
2022/07/01 02:35:17;;;;;;;41.22;19.90;;;;;;;-144.47;59.01;53189.78;5008943;28;20042;-72
2022/07/01 02:37:43;;;;;;;54.33;21.02;;;;;;;-144.47;59.09;53225.53;5019884;28;20386;-72
2022/07/01 02:40:09;;;;;;;42.78;20.13;;;;;;;-144.47;59.24;53235.47;5009311;28;20032;-71
2022/07/01 02:42:35;;;;;;;43.80;19.73;;;;;;;-144.47;59.42;53227.53;5020653;28;20023;-68
2022/07/01 02:45:02;;;;;;;40.75;19.52;;;;;;;-144.47;59.60;53177.88;5025296;28;20056;-72
2022/07/01 02:47:36;;;;;;;39.63;19.60;;;;;;;-144.47;59.65;53171.91;5002719;28;20025;-68
2022/07/01 02:50:03;;;;;;;40.83;19.88;;;;;;;-144.47;59.57;53203.69;5009125;28;20546;-73
2022/07/01 02:52:29;;;;;;;51.60;20.47;;;;;;;-144.47;59.76;53213.63;5009419;28;20033;-69
2022/07/01 02:54:55;;;;;;;47.92;20.02;;;;;;;-144.47;60.07;53197.72;5014785;28;20490;-69
2022/07/01 02:57:20;;;;;;;46.35;20.38;;;;;;;-144.47;60.13;53201.69;5014794;28;20025;-71
2022/07/01 02:59:46;;;;;;;39.60;18.40;;;;;;;-144.47;60.33;53193.75;5021267;28;20101;-72
2022/07/01 03:02:11;;;;;;;48.22;20.55;;;;;;;-144.47;60.09;53237.44;5020239;28;20520;-71
2022/07/01 03:04:36;;;;;;;46.53;19.67;;;;;;;-144.47;59.45;53219.56;5012788;28;20475;-71
2022/07/01 03:07:02;;;;;;;45.30;18.92;;;;;;;-144.47;58.84;53221.56;5020770;28;20022;-74
2022/07/01 03:09:28;;;;;;;41.15;17.13;;;;;;;-144.47;58.26;53223.56;5009506;28;20026;-75
2022/07/01 03:11:53;;;;;;;42.30;17.73;;;;;;;-144.47;58.17;53243.41;5008932;28;20025;-74
2022/07/01 03:14:18;;;;;;;31.20;15.68;;;;;;;-144.47;57.98;53217.59;5009193;28;20109;-67
2022/07/01 03:16:46;;;;;;;33.30;15.18;;;;;;;-144.47;57.69;53211.63;5010538;28;20603;-67
2022/07/01 03:19:12;;;;;;;30.92;15.95;;;;;;;-144.47;57.48;53219.56;5025329;28;20064;-72
2022/07/01 03:21:37;;;;;;;30.70;14.00;;;;;;;-144.47;57.43;53233.47;5017353;28;20037;-68
2022/07/01 03:24:03;;;;;;;36.03;14.57;;;;;;;-144.47;57.74;53241.44;5011949;28;20395;-70
2022/07/01 03:26:28;;;;;;;36.97;15.57;;;;;;;-144.47;58.14;53233.47;5012427;28;20026;-69
2022/07/01 03:28:54;;;;;;;39.97;14.88;;;;;;;-144.47;58.49;53189.78;5018231;28;20405;-68
2022/07/01 03:31:19;;;;;;;31.60;14.45;;;;;;;-144.47;58.90;53187.78;5032508;28;20021;-73
2022/07/01 03:33:44;;;;;;;41.13;17.15;;;;;;;-144.47;59.67;53245.41;5018920;28;20527;-69
2022/07/01 03:36:10;;;;;;;37.65;15.95;;;;;;;-144.47;60.02;53237.44;5020199;28;20276;-69
2022/07/01 03:38:35;;;;;;;30.73;15.50;;;;;;;-144.47;60.63;53233.47;5012345;28;20391;-70
2022/07/01 03:41:01;;;;;;;46.75;17.73;;;;;;;-144.47;60.81;53223.56;5012597;28;20446;-73
2022/07/01 03:43:26;;;;;;;40.03;17.73;;;;;;;-144.47;60.87;53215.59;5025236;28;20041;-71
2022/07/01 03:45:51;;;;;;;30.73;17.52;;;;;;;-144.47;61.34;53235.47;5012953;28;20022;-71
2022/07/01 03:48:17;;;;;;;33.53;17.30;;;;;;;-144.47;61.52;53243.41;5011766;28;20041;-70
2022/07/01 03:50:42;;;;;;;52.65;19.10;;;;;;;-144.47;62.31;53217.59;5012264;28;20037;-70
2022/07/01 03:55:52;;;;;;;41.15;19.50;;;;;;;-144.47;62.59;53231.50;5016819;28;20080;-72
2022/07/01 03:58:17;;;;;;;36.35;18.65;;;;;;;-144.47;62.68;53243.41;5012612;28;20018;-73
2022/07/01 04:00:43;;;;;;;45.30;19.40;;;;;;;-144.47;62.69;53225.53;5012881;28;20058;-70
2022/07/01 04:03:08;;;;;;;40.40;20.30;;;;;;;-144.47;62.64;53293.06;5023543;28;20049;-71
2022/07/01 04:05:35;;;;;;;46.15;20.52;;;;;;;-144.47;62.45;53211.63;5016615;28;20022;-70
2022/07/01 04:08:05;;;;;;;42.20;20.55;;;;;;;-144.47;62.36;53237.44;5023702;28;20022;-69
2022/07/01 04:10:32;;;;;;;40.00;21.17;;;;;;;-144.47;61.79;53259.31;5019132;28;20154;-71
2022/07/01 04:12:59;;;;;;;41.78;20.33;;;;;;;-144.47;61.70;53233.47;5012205;28;20030;-72
2022/07/01 04:15:25;;;;;;;49.97;21.35;;;;;;;-144.47;61.96;53249.38;5011103;28;20030;-71
2022/07/01 04:17:50;;;;;;;38.47;20.67;;;;;;;-144.47;62.30;53249.38;5011063;28;20017;-70
2022/07/01 04:20:16;;;;;;;53.40;21.70;;;;;;;-144.47;62.67;53269.22;5011346;28;20097;-71
2022/07/01 04:22:41;;;;;;;34.80;18.88;;;;;;;-144.47;62.75;53265.25;5011538;28;20487;-71
2022/07/01 04:25:07;;;;;;;31.63;19.02;;;;;;;-144.47;63.08;53261.28;5013020;28;20513;-72
2022/07/01 04:27:33;;;;;;;36.63;20.75;;;;;;;-144.47;63.13;53231.50;5021711;28;20370;-73
2022/07/01 04:29:59;;;;;;;38.38;21.25;;;;;;;-144.47;64.05;53211.63;5012427;28;20076;-71
2022/07/01 04:32:24;;;;;;;42.08;21.88;;;;;;;-144.47;64.34;53275.19;5022645;28;20026;-72
2022/07/01 04:34:50;;;;;;;37.60;22.10;;;;;;;-144.47;64.53;53271.22;5025329;28;20474;-70
2022/07/01 04:37:16;;;;;;;40.55;22.10;;;;;;;-144.47;64.46;53257.31;5017820;28;20101;-73
2022/07/01 04:39:41;;;;;;;49.20;25.25;;;;;;;-144.47;64.31;53283.13;5011399;28;20506;-70
2022/07/01 04:42:07;;;;;;;44.60;23.58;;;;;;;-144.47;64.34;53281.16;5010650;28;20395;-72
2022/07/01 04:44:35;;;;;;;48.42;24.85;;;;;;;-144.47;64.43;53259.31;5026013;28;20041;-72
2022/07/01 04:47:01;;;;;;;45.97;24.60;;;;;;;-144.47;64.23;53263.28;5010342;28;20041;-71
2022/07/01 04:49:27;;;;;;;50.58;25.85;;;;;;;-144.47;64.03;53316.91;5009096;28;20601;-72
2022/07/01 04:51:53;;;;;;;49.10;25.77;;;;;;;-144.47;64.67;53291.09;5010112;28;20066;-70
2022/07/01 04:54:19;;;;;;;47.95;25.58;;;;;;;-144.47;64.19;53283.13;5011584;28;20065;-70
2022/07/01 04:56:44;;;;;;;44.75;26.95;;;;;;;-144.47;63.80;53229.50;5012497;28;20022;-73
2022/07/01 04:59:11;;;;;;;55.33;26.10;;;;;;;-144.47;63.62;53279.16;5009802;28;20029;-71
2022/07/01 05:01:36;;;;;;;51.67;25.90;;;;;;;-144.47;63.48;53265.25;5009715;28;20344;-72
2022/07/01 05:04:02;;;;;;;45.33;25.63;;;;;;;-144.47;63.45;53249.38;5010237;28;20057;-73
2022/07/01 05:06:27;;;;;;;47.70;27.98;;;;;;;-144.47;63.38;53271.22;5007011;28;20025;-71
2022/07/01 05:08:53;;;;;;;50.70;27.55;;;;;;;-144.47;63.50;53253.34;5006898;28;20475;-77
2022/07/01 05:11:18;;;;;;;52.60;27.45;;;;;;;-144.47;63.90;53267.25;5009215;28;20045;-72
2022/07/01 05:13:43;;;;;;;52.95;26.40;;;;;;;-144.47;63.36;53245.41;5011615;28;20057;-72
2022/07/01 05:16:09;;;;;;;51.42;25.40;;;;;;;-144.47;63.37;53277.19;5010555;28;20021;-73
2022/07/01 05:24:05;;;;;;;48.10;26.60;;;;;;;-144.47;64.52;53253.34;5010549;28;20180;-72
2022/07/01 05:26:30;;;;;;;53.05;27.55;;;;;;;-144.47;65.64;53281.16;5009257;28;20119;-73
2022/07/01 05:28:55;;;;;;;50.05;27.25;;;;;;;-144.47;65.75;53281.16;5010204;28;20041;-71
2022/07/01 05:31:21;;;;;;;48.13;27.77;;;;;;;-144.47;66.46;53295.06;5010193;28;20025;-73
2022/07/01 05:33:46;;;;;;;54.88;28.92;;;;;;;-144.47;66.91;53316.91;5004883;28;20037;-76
2022/07/01 05:36:12;;;;;;;53.88;28.67;;;;;;;-144.47;67.50;53299.03;5009494;28;20026;-77
2022/07/01 05:38:38;;;;;;;56.65;29.40;;;;;;;-144.47;67.35;53281.16;5013807;28;20026;-74
2022/07/01 05:41:03;;;;;;;48.88;26.83;;;;;;;-144.47;66.91;53297.03;5019606;28;20062;-72
2022/07/01 05:43:30;;;;;;;49.78;28.13;;;;;;;-144.47;66.90;53253.34;5009926;28;20033;-70
2022/07/01 05:45:56;;;;;;;58.90;29.33;;;;;;;-144.47;66.66;53271.22;5019538;28;20045;-73
2022/07/01 05:48:22;;;;;;;58.67;30.08;;;;;;;-144.47;66.44;53245.41;5015811;28;20041;-72
2022/07/01 05:50:47;;;;;;;48.15;28.52;;;;;;;-144.47;66.72;53263.28;5020722;28;20264;-71
2022/07/01 05:53:13;;;;;;;48.50;27.77;;;;;;;-144.47;66.25;53275.19;5009775;28;20204;-73
2022/07/01 05:55:38;;;;;;;47.17;27.38;;;;;;;-144.47;66.06;53316.91;5009934;28;20517;-69
2022/07/01 05:58:06;;;;;;;51.17;28.70;;;;;;;-144.47;65.97;53289.09;5009705;28;20029;-72
2022/07/01 06:00:31;;;;;;;47.85;27.17;;;;;;;-144.47;65.27;53308.97;5009797;28;20124;-73
2022/07/01 06:02:57;;;;;;;43.97;26.50;;;;;;;-144.47;64.84;53301.03;5021076;28;20223;-74
2022/07/01 06:05:22;;;;;;;45.75;24.80;;;;;;;-144.47;64.17;53297.03;5012471;28;20099;-74
2022/07/01 06:07:48;;;;;;;49.42;26.30;;;;;;;-144.47;64.79;53269.22;5018721;28;20068;-70
2022/07/01 06:10:13;;;;;;;39.83;25.02;;;;;;;-144.47;63.76;53301.03;5012158;28;20022;-72
2022/07/01 06:12:39;;;;;;;43.03;25.42;;;;;;;-144.47;63.46;53273.22;5009424;28;20029;-72
2022/07/01 06:15:10;;;;;;;42.97;25.55;;;;;;;-144.47;63.45;53277.19;5013956;28;20026;-74
2022/07/01 06:17:36;;;;;;;51.47;26.80;;;;;;;-144.47;64.00;53297.03;5020845;28;20605;-73
2022/07/01 06:20:02;;;;;;;47.40;25.50;;;;;;;-144.47;64.10;53271.22;5012129;28;20030;-71
2022/07/01 06:22:28;;;;;;;57.92;27.00;;;;;;;-144.47;64.20;53299.03;5020881;28;20081;-72
2022/07/01 06:24:53;;;;;;;43.42;24.38;;;;;;;-144.47;63.59;53320.88;5024956;28;20026;-69
2022/07/01 06:27:18;;;;;;;51.55;28.02;;;;;;;-144.47;63.48;53297.03;5009043;28;20125;-73
2022/07/01 06:29:45;;;;;;;43.28;24.30;;;;;;;-144.47;63.53;53303.00;5009583;28;20021;-71
2022/07/01 06:34:44;;;;;;;35.42;18.17;;;;;;;-144.47;62.48;53299.03;5027344;28;20580;-68
2022/07/01 06:37:10;;;;;;;33.65;17.48;;;;;;;-144.47;62.57;53318.91;5028192;28;20037;-68
2022/07/01 06:39:35;;;;;;;29.83;16.50;;;;;;;-144.47;62.34;53277.19;5029646;28;20022;-69
2022/07/01 06:42:00;;;;;;;27.15;15.15;;;;;;;-144.47;62.58;53285.13;5029354;28;20029;-65
2022/07/01 06:44:26;;;;;;;28.17;14.02;;;;;;;-144.47;62.21;53291.09;5029705;28;20052;-67
2022/07/01 06:46:51;;;;;;;26.40;14.00;;;;;;;-144.47;61.71;53303.00;5029780;28;20105;-68
2022/07/01 06:49:17;;;;;;;26.40;14.82;;;;;;;-144.47;61.89;53297.03;5028669;28;20021;-68
2022/07/01 06:51:42;;;;;;;23.55;13.25;;;;;;;-144.47;61.78;53219.56;5031547;28;20483;-67
2022/07/01 06:54:08;;;;;;;31.02;14.70;;;;;;;-144.47;62.14;53253.34;5034448;28;20077;-67
2022/07/01 06:56:33;;;;;;;27.23;14.43;;;;;;;-144.47;62.15;53281.16;5038158;28;20052;-70
2022/07/01 06:58:59;;;;;;;26.25;13.88;;;;;;;-144.47;61.51;53297.03;5032102;28;20114;-66
2022/07/01 07:01:24;;;;;;;26.80;13.00;;;;;;;-144.47;61.67;53267.25;5027472;28;20029;-70
2022/07/01 07:03:50;;;;;;;21.88;12.82;;;;;;;-144.47;62.19;53285.13;5033505;28;20057;-69
2022/07/01 07:06:16;;;;;;;23.35;12.50;;;;;;;-144.47;62.01;53253.34;5038711;28;20029;-72
2022/07/01 07:08:41;;;;;;;20.80;11.63;;;;;;;-144.47;62.14;53263.28;5023490;28;20475;-68
2022/07/01 07:11:08;;;;;;;22.05;11.75;;;;;;;-144.47;62.36;53324.84;5032680;28;20034;-68
2022/07/01 07:13:34;;;;;;;21.38;11.20;;;;;;;-144.47;62.46;53281.16;5031417;28;20478;-68
2022/07/01 07:16:00;;;;;;;18.98;11.90;;;;;;;-144.47;62.10;53306.97;5038805;28;20024;-70
2022/07/01 07:18:25;;;;;;;19.30;10.05;;;;;;;-144.47;62.98;53299.03;5034866;28;20557;-67
2022/07/01 07:20:50;;;;;;;24.73;11.63;;;;;;;-144.47;63.05;53277.19;5028327;28;20030;-71
2022/07/01 07:23:16;;;;;;;16.73;9.57;;;;;;;-144.47;62.54;53308.97;5033099;28;20028;-69
2022/07/01 07:25:41;;;;;;;16.33;9.38;;;;;;;-144.47;62.78;53291.09;5036641;28;20025;-71
2022/07/01 07:28:07;;;;;;;20.40;9.43;;;;;;;-144.47;62.86;53338.75;5033722;28;20636;-66
2022/07/01 07:30:32;;;;;;;22.02;8.23;;;;;;;-144.47;62.96;53314.91;5035750;28;20045;-68
2022/07/01 07:32:58;;;;;;;24.90;8.77;;;;;;;-144.47;62.91;53287.13;5035019;28;20503;-65
2022/07/01 07:35:23;;;;;;;21.70;9.88;;;;;;;-144.47;63.08;53316.91;5024194;28;20013;-69
2022/07/01 07:37:49;;;;;;;21.48;9.23;;;;;;;-144.47;63.30;53316.91;5032482;28;20092;-69
2022/07/01 07:40:18;;;;;;;17.55;8.00;;;;;;;-144.47;63.50;53312.94;5034028;28;20045;-67
2022/07/01 07:42:43;;;;;;;;;;;;;;;-144.47;63.39;53328.81;5036165;28;20029;-68
2022/07/01 07:45:11;;;;;;;16.73;8.20;;;;;;;-144.47;63.51;53318.91;5036586;28;19923;-67
2022/07/01 07:47:37;;;;;;;17.60;9.73;;;;;;;-144.47;64.54;53287.13;5027153;28;20037;-65
2022/07/01 07:50:03;;;;;;;17.20;8.88;;;;;;;-144.47;65.95;53320.88;5033556;28;20028;-66
2022/07/01 07:52:29;;;;;;;18.48;10.38;;;;;;;-144.47;67.01;53308.97;5032813;28;20107;-67
2022/07/01 07:54:55;;;;;;;23.45;11.27;;;;;;;-144.47;69.22;53312.94;5032510;28;20033;-66
2022/07/01 07:57:26;;;;;;;24.90;11.43;;;;;;;-144.47;70.15;53336.78;5034088;28;20025;-68
2022/07/01 07:59:51;;;;;;;27.40;13.00;;;;;;;-144.47;70.37;53354.66;5036032;28;20025;-69
2022/07/01 08:02:17;;;;;;;28.58;12.75;;;;;;;-144.47;70.07;53332.81;5033458;28;20123;-68
2022/07/01 08:04:42;;;;;;;27.83;13.30;;;;;;;-144.47;71.40;53344.72;5034820;28;20048;-69
2022/07/01 08:07:07;;;;;;;29.73;13.93;;;;;;;-144.47;72.05;53318.91;5030813;28;20239;-67
2022/07/01 08:09:34;;;;;;;28.67;12.93;;;;;;;-144.47;71.94;53303.00;5038190;28;20028;-67
2022/07/01 08:12:00;;;;;;;27.35;14.02;;;;;;;-144.47;71.28;53376.50;5035457;28;20029;-69
2022/07/01 08:14:26;;;;;;;26.83;15.25;;;;;;;-144.47;70.93;53308.97;5023801;28;20051;-68
2022/07/01 08:16:51;;;;;;;35.47;16.42;;;;;;;-144.47;72.06;53350.69;5034619;28;20514;-69
2022/07/01 08:19:17;;;;;;;37.92;17.73;;;;;;;-144.47;73.54;53374.50;5032605;28;20136;-68
2022/07/01 08:21:42;;;;;;;34.97;19.10;;;;;;;-144.47;73.97;53344.72;5034605;28;20048;-69
2022/07/01 08:24:07;;;;;;;33.35;18.40;;;;;;;-144.47;74.28;53334.78;5040345;28;20024;-67
2022/07/01 08:26:33;;;;;;;38.20;18.42;;;;;;;-144.47;74.34;53328.81;5030367;28;20022;-72
2022/07/01 08:28:58;;;;;;;32.70;18.45;;;;;;;-144.47;74.63;53314.91;5031124;28;20033;-68
2022/07/01 08:31:23;;;;;;;37.15;19.45;;;;;;;-144.47;74.14;53342.72;5031292;28;20021;-72
2022/07/01 08:33:49;;;;;;;32.97;17.67;;;;;;;-144.47;73.72;53324.84;5031302;28;20052;-71
2022/07/01 08:36:14;;;;;;;35.30;19.92;;;;;;;-144.47;73.45;53332.81;5031121;28;20028;-71
2022/07/01 08:38:41;;;;;;;41.97;20.50;;;;;;;-144.47;73.13;53346.72;5030188;28;20022;-70
2022/07/01 08:41:07;;;;;;;30.85;18.35;;;;;;;-144.47;72.33;53344.72;5030749;28;20018;-71
2022/07/01 08:43:34;;;;;;;35.15;19.40;;;;;;;-144.47;72.90;53360.63;5032893;28;20129;-69
2022/07/01 08:46:03;;;;;;;35.47;20.70;;;;;;;-144.47;73.24;53356.63;5027390;28;20036;-71
2022/07/01 08:48:29;;;;;;;39.03;21.10;;;;;;;-144.47;74.19;53356.63;5031815;28;20014;-69
2022/07/01 08:50:55;;;;;;;48.67;22.52;;;;;;;-144.47;74.27;53340.75;5030851;28;20025;-69
2022/07/01 08:53:21;;;;;;;41.72;21.63;;;;;;;-144.47;73.38;53366.56;5031392;28;20104;-68
2022/07/01 08:58:30;;;;;;;42.17;22.52;;;;;;;-144.47;74.03;53362.59;5031563;28;20032;-67
2022/07/01 09:01:16;;;;;;;47.42;24.55;;;;;;;-144.47;74.99;53348.69;5031094;28;20029;-69
2022/07/01 09:03:45;;;;;;;39.95;23.73;;;;;;;-144.47;75.11;53368.56;5030656;28;20021;-69
2022/07/01 09:06:13;;;;;;;45.22;22.80;;;;;;;-144.47;74.02;53360.63;5036016;28;20029;-67
2022/07/01 09:08:38;;;;;;;43.25;21.27;;;;;;;-144.47;74.05;53344.72;5026645;28;20049;-68
2022/07/01 09:11:14;;;;;;;36.88;21.30;;;;;;;-144.47;73.84;53418.22;5024298;28;20041;-67
2022/07/01 09:13:41;;;;;;;39.28;21.67;;;;;;;-144.47;73.67;53352.66;5037410;28;20095;-68
2022/07/01 09:16:16;;;;;;;36.35;19.38;;;;;;;-144.47;73.16;53342.72;5018744;28;20040;-68
2022/07/01 09:19:03;;;;;;;35.92;19.00;;;;;;;-144.47;73.36;53344.72;5027433;28;20029;-67
2022/07/01 09:21:31;;;;;;;49.97;21.92;;;;;;;-144.47;74.00;53352.66;5020684;28;20033;-68
2022/07/01 09:24:05;;;;;;;43.20;20.25;;;;;;;-144.47;73.86;53350.69;5025550;28;20021;-67
2022/07/01 09:26:31;;;;;;;35.65;20.00;;;;;;;-144.47;72.43;53356.63;5013893;28;20025;-70
2022/07/01 09:28:57;;;;;;;32.83;19.52;;;;;;;-144.47;72.85;53340.75;5029088;28;20387;-69
2022/07/01 09:31:32;;;;;;;41.15;20.85;;;;;;;-144.47;74.21;53372.53;5022476;28;20040;-70
2022/07/01 09:34:09;;;;;;;38.90;21.10;;;;;;;-144.47;73.90;53350.69;5032642;28;20033;-70
2022/07/01 09:36:41;;;;;;;35.10;20.47;;;;;;;-144.47;73.86;53376.50;5028196;28;20132;-69
2022/07/01 09:39:07;;;;;;;34.08;19.35;;;;;;;-144.47;73.41;53314.91;5030088;28;20297;-69
2022/07/01 09:41:40;;;;;;;36.60;18.60;;;;;;;-144.47;73.10;53356.63;5030413;28;20028;-68
2022/07/01 09:44:09;;;;;;;37.35;19.23;;;;;;;-144.47;73.13;53332.81;5017351;28;20399;-67
2022/07/01 09:46:34;;;;;;;;;;;;;;;-144.47;72.40;53364.59;5023879;28;20029;-67
2022/07/01 09:49:00;;;;;;;29.58;14.18;;;;;;;-144.47;71.73;53378.50;5037001;28;20007;-70
2022/07/01 09:51:26;;;;;;;28.13;14.45;;;;;;;-144.47;71.22;53368.56;5024896;28;20135;-67
2022/07/01 09:53:52;;;;;;;26.08;13.60;;;;;;;-144.47;72.07;53344.72;5021828;28;20036;-70
2022/07/01 09:56:19;;;;;;;20.20;13.35;;;;;;;-144.47;72.00;53390.41;5028496;28;20068;-70
2022/07/01 09:58:45;;;;;;;27.85;14.88;;;;;;;-144.47;73.12;53360.63;5027121;28;20041;-67
2022/07/01 10:01:15;;;;;;;23.95;12.95;;;;;;;-144.47;73.59;53408.28;5025545;28;20025;-68
2022/07/01 10:03:41;;;;;;;24.80;14.50;;;;;;;-144.47;74.09;53360.63;5021489;28;20021;-69
2022/07/01 10:06:06;;;;;;;21.48;9.98;;;;;;;-144.47;74.88;53344.72;5027662;28;20021;-68
2022/07/01 10:08:59;;;;;;;21.60;9.00;;;;;;;-144.47;75.51;53372.53;5029033;28;20447;-71
2022/07/01 10:11:43;;;;;;;29.48;10.38;;;;;;;-144.47;77.08;53372.53;5028070;28;20045;-70
2022/07/01 10:14:11;;;;;;;16.85;10.63;;;;;;;-144.47;77.60;53390.41;5039452;28;20102;-68
2022/07/01 10:16:38;;;;;;;19.67;11.07;;;;;;;-144.47;78.70;53348.69;5020738;28;20446;-71
2022/07/01 10:19:30;;;;;;;23.83;11.20;;;;;;;-144.47;78.19;53382.47;5014203;28;20148;-71
2022/07/01 10:22:00;;;;;;;17.20;9.45;;;;;;;-144.47;78.33;53350.69;5020344;28;20045;-70
2022/07/01 10:24:27;;;;;;;18.90;10.20;;;;;;;-144.47;78.35;53384.44;5025129;28;20601;-71
2022/07/01 10:26:59;;;;;;;15.93;8.70;;;;;;;-144.47;78.27;53404.31;5022550;28;20112;-72
2022/07/01 10:29:35;;;;;;;12.50;7.30;;;;;;;-144.47;76.92;53360.63;5032195;28;20025;-69
2022/07/01 10:32:08;;;;;;;10.43;5.55;;;;;;;-144.47;77.08;53354.66;5029411;28;20025;-69
2022/07/01 10:34:39;;;;;;;10.88;5.75;;;;;;;-144.47;76.37;53378.50;5024684;28;20048;-71
2022/07/01 10:37:08;;;;;;;9.75;6.22;;;;;;;-144.47;76.44;53394.38;5035704;28;20108;-70
2022/07/01 10:40:00;;;;;;;10.43;6.32;;;;;;;-144.47;75.63;53380.47;5029158;28;20033;-70
2022/07/01 10:42:36;;;;;;;8.13;5.18;;;;;;;-144.47;75.63;53392.41;5029157;28;20415;-70
2022/07/01 10:45:04;;;;;;;9.20;5.50;;;;;;;-144.47;74.68;53346.72;5026999;28;20026;-71
2022/07/01 10:47:30;;;;;;;10.48;4.85;;;;;;;-144.47;73.22;53366.56;5024506;28;20577;-72
2022/07/01 10:49:58;;;;;;;10.05;5.30;;;;;;;-144.47;73.96;53336.78;5027165;28;20104;-70
2022/07/01 10:52:24;;;;;;;9.65;5.25;;;;;;;-144.47;73.32;53372.53;5026192;28;20033;-69
2022/07/01 10:54:53;;;;;;;12.18;4.72;;;;;;;-144.47;71.82;53366.56;5024452;28;20033;-72
2022/07/01 10:57:18;;;;;;;8.70;4.28;;;;;;;-144.47;72.62;53364.59;5028740;28;20037;-72
2022/07/01 10:59:51;;;;;;;8.77;5.72;;;;;;;-144.47;73.17;53360.63;5029387;28;20033;-71
2022/07/01 11:02:22;;;;;;;8.18;4.13;;;;;;;-144.47;71.88;53358.63;5027153;28;20029;-71
2022/07/01 11:04:49;;;;;;;8.57;4.50;;;;;;;-144.47;72.21;53356.63;5022995;28;20321;-72
2022/07/01 11:07:15;;;;;;;5.85;3.80;;;;;;;-144.47;70.84;53364.59;5027292;28;20029;-68
2022/07/01 11:09:40;;;;;;;7.32;4.22;;;;;;;-144.47;71.38;53364.59;5027899;28;20398;-72
2022/07/01 11:12:06;;;;;;;9.23;4.45;;;;;;;-144.47;72.17;53354.66;5027348;28;20025;-70
2022/07/01 11:14:40;;;;;;;7.20;3.80;;;;;;;-144.47;72.01;53334.78;5021227;28;20026;-71
2022/07/01 11:17:05;;;;;;;7.38;3.53;;;;;;;-144.47;71.04;53364.59;5020662;28;20050;-71